Time;durP1;ratioP1;P1;durP2;ratioP2;P2;SDS_P1;SDS_P2;PMS_P1;PMS_P2;Temp;Humidity;BMP_temperature;BMP_pressure;BME280_temperature;BME280_humidity;BME280_pressure;Samples;Min_cycle;Max_cycle;Signal;HPM_P1;HPM_P2
2023/04/11 00:01:31;;;;;;;10.98;8.35;;;;;;;8.57;59.96;94742.16;5004495;28;20084;-78
2023/04/11 00:03:57;;;;;;;9.95;7.60;;;;;;;8.54;60.05;94732.78;5004033;28;20640;-80
2023/04/11 00:06:23;;;;;;;11.65;8.43;;;;;;;8.56;59.90;94735.13;5003148;28;20456;-80
2023/04/11 00:08:49;;;;;;;11.07;7.97;;;;;;;8.57;60.21;94728.44;5003979;28;20088;-79
2023/04/11 00:11:14;;;;;;;11.70;8.35;;;;;;;8.56;60.10;94726.91;5004654;28;20038;-79
2023/04/11 00:13:41;;;;;;;10.52;8.30;;;;;;;8.52;60.24;94718.78;5005220;28;20030;-80
2023/04/11 00:16:08;;;;;;;11.07;8.75;;;;;;;8.46;60.34;94720.47;5005101;28;20025;-79
2023/04/11 00:18:36;;;;;;;10.43;8.80;;;;;;;8.45;60.57;94724.44;5004558;28;20049;-80
2023/04/11 00:21:03;;;;;;;11.18;8.50;;;;;;;8.41;60.65;94721.00;5003926;28;20033;-80
2023/04/11 00:23:28;;;;;;;12.30;9.07;;;;;;;8.33;61.05;94719.59;5019365;28;20512;-80
2023/04/11 00:25:54;;;;;;;11.75;9.48;;;;;;;8.34;60.97;94727.38;5003451;28;20053;-80
2023/04/11 00:28:19;;;;;;;12.13;8.80;;;;;;;8.38;61.02;94732.81;5003167;28;20030;-80
2023/04/11 00:30:44;;;;;;;11.88;8.85;;;;;;;8.32;61.20;94718.84;5003323;28;20118;-80
2023/04/11 00:33:10;;;;;;;13.80;9.45;;;;;;;8.18;61.45;94719.16;5004499;28;20037;-80
2023/04/11 00:35:36;;;;;;;13.63;9.75;;;;;;;8.17;61.68;94723.84;5003165;28;20060;-80
2023/04/11 00:38:02;;;;;;;11.90;9.38;;;;;;;8.12;61.86;94716.16;5003717;28;20026;-80
2023/04/11 00:40:28;;;;;;;23.40;9.35;;;;;;;8.12;61.96;94716.16;5004235;28;20037;-81
2023/04/11 00:42:57;;;;;;;13.27;9.10;;;;;;;8.10;62.07;94713.06;5003540;28;20477;-80
2023/04/11 00:45:22;;;;;;;12.68;9.15;;;;;;;8.14;62.08;94712.97;5002932;28;20083;-79
2023/04/11 00:47:48;;;;;;;11.13;8.82;;;;;;;8.14;62.04;94713.78;5003852;28;20057;-80
2023/04/11 00:50:14;;;;;;;11.73;9.25;;;;;;;8.13;62.00;94711.44;5004400;28;20029;-79
2023/04/11 00:52:42;;;;;;;12.38;9.50;;;;;;;7.98;62.20;94713.75;5010056;28;20018;-79
2023/04/11 00:55:08;;;;;;;13.80;9.57;;;;;;;7.99;62.23;94712.53;5005763;28;20026;-79
2023/04/11 00:57:34;;;;;;;13.55;9.48;;;;;;;8.03;62.20;94718.72;5006564;28;20106;-79
2023/04/11 01:00:00;;;;;;;12.75;9.88;;;;;;;8.06;62.46;94711.63;5007441;28;20029;-81
2023/04/11 01:02:26;;;;;;;12.38;9.05;;;;;;;8.01;62.48;94712.88;5008037;28;20053;-80
2023/04/11 01:04:52;;;;;;;12.52;9.60;;;;;;;7.97;62.61;94721.19;5006863;28;20033;-80
2023/04/11 01:07:19;;;;;;;12.20;9.73;;;;;;;7.89;62.77;94711.56;5006732;28;20041;-80
2023/04/11 01:09:45;;;;;;;11.82;9.07;;;;;;;7.96;62.72;94721.59;5008783;28;20033;-79
2023/04/11 01:12:11;;;;;;;12.40;9.23;;;;;;;8.02;62.47;94727.34;5006699;28;20029;-80
2023/04/11 01:14:37;;;;;;;11.85;9.35;;;;;;;8.02;62.41;94719.91;5006834;28;20060;-80
2023/04/11 01:17:03;;;;;;;13.13;9.38;;;;;;;8.07;62.18;94722.13;5006775;28;20026;-80
2023/04/11 01:19:29;;;;;;;12.93;8.70;;;;;;;8.07;62.30;94716.66;4990233;28;20030;-80
2023/04/11 01:21:56;;;;;;;13.40;9.35;;;;;;;8.02;62.63;94724.59;4990300;28;20029;-80
2023/04/11 01:24:21;;;;;;;12.52;9.18;;;;;;;7.98;62.22;94722.72;5006248;28;20029;-79
2023/04/11 01:26:46;;;;;;;11.73;9.02;;;;;;;8.01;62.10;94723.06;5006976;28;20022;-79
2023/04/11 01:29:12;;;;;;;12.80;9.07;;;;;;;8.08;62.10;94726.41;5007692;28;20069;-80
2023/04/11 01:31:37;;;;;;;13.50;9.60;;;;;;;8.01;62.39;94726.56;5008037;28;20402;-80
2023/04/11 01:34:03;;;;;;;13.70;9.05;;;;;;;7.95;62.60;94720.06;5006254;28;20072;-80
2023/04/11 01:36:30;;;;;;;13.70;9.18;;;;;;;7.97;62.45;94723.13;5007368;28;20044;-80
2023/04/11 01:38:56;;;;;;;13.35;9.07;;;;;;;8.04;62.28;94717.53;5006689;28;20021;-79
2023/04/11 01:41:22;;;;;;;14.93;10.07;;;;;;;8.11;62.05;94720.09;5006023;28;20026;-80
2023/04/11 01:43:48;;;;;;;12.25;10.00;;;;;;;7.97;62.35;94721.19;5006846;28;20499;-80
2023/04/11 01:46:14;;;;;;;12.60;9.60;;;;;;;8.11;62.02;94711.09;5011949;28;20022;-80
2023/04/11 01:48:39;;;;;;;11.75;8.98;;;;;;;8.15;61.54;94717.28;5009617;28;20025;-80
2023/04/11 01:51:06;;;;;;;12.80;9.63;;;;;;;8.14;61.67;94711.03;5007088;28;20026;-79
2023/04/11 01:53:31;;;;;;;12.88;9.45;;;;;;;8.16;61.75;94711.38;5006328;28;20022;-80
2023/04/11 01:55:57;;;;;;;13.60;9.95;;;;;;;8.19;61.51;94704.25;5005978;28;20027;-79
2023/04/11 01:58:22;;;;;;;14.05;10.45;;;;;;;8.10;61.49;94704.09;5006790;28;20401;-79
2023/04/11 02:00:47;;;;;;;13.10;9.57;;;;;;;7.98;61.90;94702.78;5007692;28;20058;-79
2023/04/11 02:03:13;;;;;;;13.30;9.98;;;;;;;8.10;61.66;94693.16;5005039;28;20082;-79
2023/04/11 02:05:38;;;;;;;15.15;10.43;;;;;;;7.98;61.99;94692.63;5007426;28;20022;-79
2023/04/11 02:08:04;;;;;;;13.18;10.10;;;;;;;7.96;61.83;94702.44;4989003;28;20642;-80
2023/04/11 02:10:29;;;;;;;16.90;11.20;;;;;;;7.92;62.25;94701.75;5006134;28;20061;-80
2023/04/11 02:12:55;;;;;;;14.52;10.07;;;;;;;7.92;62.26;94702.53;5005786;28;20029;-80
2023/04/11 02:15:20;;;;;;;15.75;10.02;;;;;;;7.86;62.42;94704.22;5006914;28;20521;-79
2023/04/11 02:17:45;;;;;;;15.93;10.35;;;;;;;7.86;62.54;94709.69;5007250;28;20032;-79
2023/04/11 02:20:12;;;;;;;15.23;10.13;;;;;;;7.92;62.22;94702.53;5004797;28;20080;-79
2023/04/11 02:22:38;;;;;;;14.32;10.27;;;;;;;7.90;62.35;94704.91;5006015;28;20029;-80
2023/04/11 02:25:05;;;;;;;15.68;10.93;;;;;;;7.99;61.93;94707.84;5006279;28;20029;-80
2023/04/11 02:27:30;;;;;;;15.07;10.40;;;;;;;7.87;62.32;94708.50;5007310;28;20121;-79
2023/04/11 02:29:56;;;;;;;14.80;10.82;;;;;;;7.91;62.38;94705.66;5005175;28;20191;-80
2023/04/11 02:32:21;;;;;;;13.73;10.60;;;;;;;7.98;62.02;94705.53;5005076;28;20033;-80
2023/04/11 02:34:46;;;;;;;15.77;11.07;;;;;;;7.96;61.96;94705.94;5006926;28;20025;-79
2023/04/11 02:37:12;;;;;;;16.90;12.25;;;;;;;7.90;61.99;94701.41;5005990;28;20036;-79
2023/04/11 02:39:37;;;;;;;18.48;11.25;;;;;;;7.94;62.09;94696.63;5007151;28;20480;-80
2023/04/11 02:42:03;;;;;;;15.57;10.82;;;;;;;7.95;61.74;94701.66;5011419;28;20030;-80
2023/04/11 02:44:29;;;;;;;15.57;11.27;;;;;;;7.96;61.85;94702.44;5005669;28;20037;-80
2023/04/11 02:46:55;;;;;;;14.93;11.38;;;;;;;7.95;61.80;94695.44;5006219;28;20197;-80
2023/04/11 02:49:20;;;;;;;16.42;11.57;;;;;;;7.86;62.05;94689.78;5006819;28;20105;-81
2023/04/11 02:51:46;;;;;;;16.63;11.75;;;;;;;7.86;61.72;94689.78;5006265;28;20081;-80
2023/04/11 02:54:11;;;;;;;15.23;11.05;;;;;;;7.92;61.73;94693.56;5006365;28;20488;-79
2023/04/11 02:56:37;;;;;;;17.25;11.45;;;;;;;7.88;61.88;94685.41;5005566;28;20471;-80
2023/04/11 02:59:06;;;;;;;16.08;11.73;;;;;;;7.81;62.12;94676.59;5004354;28;20046;-81
2023/04/11 03:01:32;;;;;;;16.17;12.00;;;;;;;7.83;61.76;94682.41;5006480;28;20113;-80
2023/04/11 03:03:57;;;;;;;15.98;11.77;;;;;;;7.85;61.62;94680.00;5005004;28;20405;-79
2023/04/11 03:06:23;;;;;;;15.55;11.85;;;;;;;7.70;62.29;94680.34;5006709;28;20084;-80
2023/04/11 03:08:48;;;;;;;16.90;11.65;;;;;;;7.72;61.98;94691.63;5005928;28;20038;-80
2023/04/11 03:11:15;;;;;;;16.67;11.45;;;;;;;7.77;61.89;94679.41;5006183;28;20056;-81
2023/04/11 03:13:41;;;;;;;18.42;12.50;;;;;;;7.77;62.23;94686.84;5006129;28;20029;-80
2023/04/11 03:16:07;;;;;;;17.83;12.38;;;;;;;7.71;61.95;94681.88;5005514;28;20040;-80
2023/04/11 03:18:32;;;;;;;16.52;11.93;;;;;;;7.76;61.87;94682.56;5004171;28;20271;-79
2023/04/11 03:20:58;;;;;;;16.83;12.68;;;;;;;7.80;61.62;94686.78;5003957;28;20029;-80
2023/04/11 03:23:23;;;;;;;18.73;12.57;;;;;;;7.64;62.18;94681.25;5006004;28;20113;-80
2023/04/11 03:25:49;;;;;;;16.55;12.07;;;;;;;7.63;62.06;94680.50;5005429;28;20408;-79
2023/04/11 03:28:15;;;;;;;18.75;12.63;;;;;;;7.73;61.80;94687.69;5005904;28;20022;-79
2023/04/11 03:30:41;;;;;;;20.40;12.63;;;;;;;7.54;62.37;94685.00;5005556;28;20095;-79
2023/04/11 03:33:07;;;;;;;20.15;12.85;;;;;;;7.45;62.50;94683.59;5004254;28;20021;-79
2023/04/11 03:35:33;;;;;;;16.80;11.93;;;;;;;7.43;62.79;94683.25;5007409;28;20341;-80
2023/04/11 03:37:58;;;;;;;19.48;12.93;;;;;;;7.34;63.07;94677.59;5010496;28;20108;-79
2023/04/11 03:40:23;;;;;;;17.40;13.13;;;;;;;7.56;62.41;94683.34;5006115;28;20397;-79
2023/04/11 03:42:49;;;;;;;19.80;13.55;;;;;;;7.54;62.48;94685.00;5004025;28;20061;-79
2023/04/11 03:45:15;;;;;;;19.52;13.27;;;;;;;7.52;62.45;94682.69;5004933;28;20054;-79
2023/04/11 03:47:40;;;;;;;20.98;13.93;;;;;;;7.26;62.88;94678.91;5003651;28;20026;-80
2023/04/11 03:50:06;;;;;;;19.23;13.98;;;;;;;7.27;63.23;94682.41;5004706;28;20447;-80
2023/04/11 03:52:32;;;;;;;20.48;13.65;;;;;;;7.35;62.94;94681.09;5003628;28;20404;-80
2023/04/11 03:54:58;;;;;;;19.70;13.88;;;;;;;7.48;62.48;94690.19;5004931;28;20117;-80
2023/04/11 03:57:25;;;;;;;18.52;13.18;;;;;;;7.38;62.92;94674.75;5003772;28;20129;-81
2023/04/11 03:59:52;;;;;;;19.45;13.55;;;;;;;7.35;62.88;94681.09;5003281;28;20503;-80
2023/04/11 04:02:17;;;;;;;19.58;13.23;;;;;;;7.38;62.61;94675.53;5005529;28;20033;-79
2023/04/11 04:04:53;;;;;;;19.75;13.23;;;;;;;7.47;62.58;94685.16;5004088;28;20431;-80
2023/04/11 04:07:22;;;;;;;21.52;14.20;;;;;;;7.45;62.53;94685.53;5005290;28;20037;-80
2023/04/11 04:09:48;;;;;;;20.75;14.15;;;;;;;7.38;62.64;94681.00;5005025;28;20022;-80
2023/04/11 04:12:13;;;;;;;23.55;14.80;;;;;;;7.44;62.56;94690.25;5003192;28;20084;-80
2023/04/11 04:14:38;;;;;;;20.40;14.43;;;;;;;7.43;62.52;94688.72;5005358;28;20030;-80
2023/04/11 04:17:04;;;;;;;19.05;13.68;;;;;;;7.44;62.61;94686.75;5004333;28;20033;-80
2023/04/11 04:19:29;;;;;;;21.63;13.85;;;;;;;7.37;62.56;94684.94;5004945;28;20096;-80
2023/04/11 04:21:57;;;;;;;19.90;13.52;;;;;;;7.35;62.83;94684.59;5004460;28;20133;-80
2023/04/11 04:24:25;;;;;;;22.30;13.48;;;;;;;7.26;62.99;94689.06;5004005;28;20022;-80
2023/04/11 04:26:51;;;;;;;20.02;14.55;;;;;;;7.31;62.65;94685.84;5004726;28;20029;-79
2023/04/11 04:29:17;;;;;;;19.80;13.63;;;;;;;7.29;62.92;94689.00;5002769;28;20034;-79
2023/04/11 04:31:43;;;;;;;20.90;15.32;;;;;;;7.35;62.62;94681.84;5010687;28;20036;-80
2023/04/11 04:34:08;;;;;;;21.23;14.95;;;;;;;7.31;62.60;94683.88;5004836;28;20484;-79
2023/04/11 04:36:47;;;;;;;20.85;14.95;;;;;;;7.21;62.95;94676.66;5003832;28;20022;-79
2023/04/11 04:39:17;;;;;;;22.40;15.45;;;;;;;7.24;62.94;94669.59;5003046;28;20116;-80
2023/04/11 04:41:56;;;;;;;20.63;14.98;;;;;;;7.26;62.72;94684.38;5003387;28;20061;-80
2023/04/11 04:44:23;;;;;;;22.20;15.00;;;;;;;7.30;62.87;94676.13;5003302;28;20022;-80
2023/04/11 04:46:54;;;;;;;20.48;14.65;;;;;;;7.19;63.09;94673.59;5002848;28;20400;-80
2023/04/11 04:49:20;;;;;;;19.63;14.93;;;;;;;7.27;62.89;94679.69;5005109;28;20037;-81
2023/04/11 04:51:45;;;;;;;21.55;15.15;;;;;;;7.19;62.77;94660.69;5002282;28;20334;-81
2023/04/11 04:54:10;;;;;;;23.23;15.88;;;;;;;7.10;63.31;94676.09;5004825;28;20068;-80
2023/04/11 04:56:36;;;;;;;21.73;15.52;;;;;;;7.10;63.14;94678.84;5003882;28;20025;-80
2023/04/11 04:59:01;;;;;;;24.35;16.10;;;;;;;7.24;63.22;94678.56;5003480;28;20061;-79
2023/04/11 05:01:27;;;;;;;24.05;14.80;;;;;;;7.13;63.18;94673.31;5002854;28;20022;-81
2023/04/11 05:03:59;;;;;;;23.20;14.80;;;;;;;7.17;63.10;94676.75;5004281;28;20026;-81
2023/04/11 05:06:30;;;;;;;23.50;15.20;;;;;;;7.11;63.21;94677.63;5003477;28;20070;-79
2023/04/11 05:08:57;;;;;;;20.58;14.70;;;;;;;7.13;63.06;94673.31;5002351;28;20080;-79
2023/04/11 05:11:23;;;;;;;24.30;15.05;;;;;;;7.15;62.98;94675.63;5003405;28;20111;-80
2023/04/11 05:13:48;;;;;;;22.15;15.60;;;;;;;7.33;62.49;94672.50;5002492;28;20104;-79
2023/04/11 05:16:15;;;;;;;20.45;14.60;;;;;;;7.26;62.69;94678.13;5003474;28;20037;-81
2023/04/11 05:18:41;;;;;;;24.95;15.25;;;;;;;7.33;62.52;94680.72;5004070;28;20060;-80
2023/04/11 05:21:06;;;;;;;20.35;14.32;;;;;;;7.36;62.46;94674.41;5004404;28;20026;-79
2023/04/11 05:23:32;;;;;;;20.77;14.00;;;;;;;7.34;62.41;94682.25;5002952;28;20045;-79
2023/04/11 05:25:57;;;;;;;19.35;14.43;;;;;;;7.33;62.65;94678.00;5003753;28;20037;-79
2023/04/11 05:28:22;;;;;;;24.85;15.05;;;;;;;7.44;62.43;94673.06;5011214;28;20037;-80
2023/04/11 05:30:48;;;;;;;23.20;15.13;;;;;;;7.42;62.38;94673.50;5003354;28;20082;-81
2023/04/11 05:33:14;;;;;;;22.40;15.70;;;;;;;7.36;62.61;94677.16;5004576;28;20129;-80
2023/04/11 05:35:40;;;;;;;20.95;14.93;;;;;;;7.38;62.67;94672.03;5003496;28;20022;-80
2023/04/11 05:38:05;;;;;;;22.73;15.88;;;;;;;7.32;62.75;94673.72;5004491;28;20026;-80
2023/04/11 05:40:31;;;;;;;19.48;14.27;;;;;;;7.37;62.52;94673.22;5003829;28;20030;-80
2023/04/11 05:42:56;;;;;;;19.45;13.90;;;;;;;7.47;62.37;94669.50;5005983;28;20112;-81
2023/04/11 05:45:22;;;;;;;20.75;15.30;;;;;;;7.52;62.38;94660.03;5006563;28;20554;-81
2023/04/11 05:47:47;;;;;;;20.27;14.07;;;;;;;7.62;62.03;94670.72;5005625;28;20021;-81
2023/04/11 05:50:13;;;;;;;22.42;14.90;;;;;;;7.65;62.01;94656.22;5007829;28;20048;-80
2023/04/11 05:52:39;;;;;;;20.20;13.95;;;;;;;7.83;61.72;94665.97;5005605;28;20029;-80
2023/04/11 05:55:06;;;;;;;19.40;14.25;;;;;;;7.86;61.50;94656.94;5006440;28;20458;-80
2023/04/11 05:57:31;;;;;;;21.75;14.75;;;;;;;7.90;61.50;94663.09;5006993;28;20044;-80
2023/04/11 06:00:00;;;;;;;18.88;13.45;;;;;;;8.12;60.61;94661.38;5007609;28;20029;-80
2023/04/11 06:02:26;;;;;;;18.63;14.07;;;;;;;8.17;60.49;94654.63;5007252;28;20453;-81
2023/04/11 06:04:52;;;;;;;17.48;12.80;;;;;;;8.17;60.30;94657.38;5004951;28;20431;-81
2023/04/11 06:07:18;;;;;;;20.05;13.73;;;;;;;8.29;60.10;94653.94;5007779;28;20054;-79
2023/04/11 06:09:43;;;;;;;18.10;13.32;;;;;;;8.30;60.05;94638.28;5005247;28;20037;-80
2023/04/11 06:12:08;;;;;;;16.50;13.63;;;;;;;8.36;60.09;94642.84;4989977;28;20060;-80
2023/04/11 06:14:34;;;;;;;20.15;14.13;;;;;;;8.24;60.39;94644.28;5021765;28;20022;-80
2023/04/11 06:17:00;;;;;;;17.23;13.25;;;;;;;8.37;60.02;94644.41;5005550;28;20042;-80
2023/04/11 06:19:25;;;;;;;19.80;13.57;;;;;;;8.51;59.99;94635.81;5005431;28;20409;-81
2023/04/11 06:21:50;;;;;;;15.70;12.20;;;;;;;8.74;59.42;94634.81;5008308;28;20137;-82
2023/04/11 06:24:18;;;;;;;16.63;12.27;;;;;;;8.69;59.21;94635.34;5013178;28;20223;-82
2023/04/11 06:26:44;;;;;;;16.75;11.75;;;;;;;8.36;59.35;94625.63;5006421;28;20041;-81
2023/04/11 06:29:09;;;;;;;14.20;10.50;;;;;;;8.61;58.70;94630.50;5007246;28;20037;-81
2023/04/11 06:31:35;;;;;;;14.02;9.98;;;;;;;8.65;58.64;94633.88;5004938;28;20113;-82
2023/04/11 06:34:00;;;;;;;16.63;10.73;;;;;;;8.82;58.39;94623.66;5005356;28;20469;-81
2023/04/11 06:36:26;;;;;;;14.02;10.57;;;;;;;8.71;58.21;94627.44;5037963;28;20026;-81
2023/04/11 06:38:52;;;;;;;15.45;11.52;;;;;;;8.71;58.11;94630.19;5006050;28;20034;-80
2023/04/11 06:41:17;;;;;;;16.05;11.52;;;;;;;8.98;57.91;94626.34;5005226;28;20457;-82
2023/04/11 06:43:42;;;;;;;16.60;11.38;;;;;;;9.05;58.08;94629.66;5005318;28;20482;-81
2023/04/11 06:46:08;;;;;;;15.80;11.85;;;;;;;9.17;57.71;94617.19;5006956;28;20087;-82
2023/04/11 06:48:33;;;;;;;15.10;10.90;;;;;;;9.15;57.89;94610.63;5006103;28;20328;-82
2023/04/11 06:50:59;;;;;;;14.55;10.75;;;;;;;9.49;57.00;94615.50;5005547;28;20029;-82
2023/04/11 06:53:25;;;;;;;14.05;11.15;;;;;;;9.62;56.62;94624.50;4987678;28;20793;-82
2023/04/11 06:55:50;;;;;;;14.43;10.43;;;;;;;9.70;56.42;94628.59;5006743;28;20029;-82
2023/04/11 06:58:16;;;;;;;14.20;9.25;;;;;;;9.77;56.06;94624.84;5004352;28;20050;-83
2023/04/11 07:00:41;;;;;;;14.93;10.75;;;;;;;9.73;55.73;94630.44;5006275;28;20072;-83
2023/04/11 07:03:07;;;;;;;12.98;10.10;;;;;;;9.61;55.10;94612.00;5006104;28;20022;-82
2023/04/11 07:05:35;;;;;;;12.80;9.32;;;;;;;9.74;55.33;94625.72;5004037;28;20036;-83
2023/04/11 07:08:00;;;;;;;12.02;9.43;;;;;;;9.83;55.33;94623.09;5006709;28;20026;-82
2023/04/11 07:10:26;;;;;;;16.60;9.95;;;;;;;9.74;55.14;94625.72;5005657;28;20415;-81
2023/04/11 07:12:51;;;;;;;12.95;9.90;;;;;;;9.85;55.09;94623.41;5006488;28;20392;-81
2023/04/11 07:15:17;;;;;;;13.93;9.70;;;;;;;9.94;54.26;94622.78;5004138;28;20049;-81
2023/04/11 07:17:42;;;;;;;14.60;9.88;;;;;;;9.91;54.48;94612.66;4994933;28;20124;-82
2023/04/11 07:20:08;;;;;;;14.32;10.55;;;;;;;10.08;53.79;94617.56;5007208;28;20396;-83
2023/04/11 07:22:35;;;;;;;12.90;8.90;;;;;;;10.09;53.75;94626.59;5005987;28;20508;-81
2023/04/11 07:25:02;;;;;;;14.65;9.60;;;;;;;10.17;53.67;94616.94;4988669;28;20029;-81
2023/04/11 07:27:27;;;;;;;13.75;9.55;;;;;;;10.00;54.00;94618.25;5005899;28;20377;-82
2023/04/11 07:29:53;;;;;;;13.13;8.75;;;;;;;9.88;53.56;94613.56;5005648;28;20429;-82
2023/04/11 07:32:18;;;;;;;13.00;9.65;;;;;;;9.88;53.22;94616.28;5003696;28;20048;-81
2023/04/11 07:34:43;;;;;;;16.98;9.35;;;;;;;10.02;53.21;94599.34;5006170;28;20026;-82
2023/04/11 07:37:09;;;;;;;12.93;9.55;;;;;;;10.23;53.02;94617.13;5003799;28;20133;-82
2023/04/11 07:39:35;;;;;;;12.75;9.55;;;;;;;10.23;52.82;94604.19;5005849;28;20022;-81
2023/04/11 07:42:01;;;;;;;11.18;9.02;;;;;;;10.16;52.76;94601.66;5005663;28;20022;-81
2023/04/11 07:44:26;;;;;;;11.82;8.90;;;;;;;10.16;52.91;94595.41;4987117;28;20467;-81
2023/04/11 07:46:52;;;;;;;16.83;10.07;;;;;;;10.28;52.35;94595.41;5006051;28;20022;-81
2023/04/11 07:49:17;;;;;;;10.00;8.00;;;;;;;10.14;53.29;94589.56;5005190;28;20436;-81
2023/04/11 07:51:42;;;;;;;12.18;8.77;;;;;;;10.34;53.18;94593.63;5005882;28;20112;-83
2023/04/11 07:54:08;;;;;;;11.95;9.02;;;;;;;10.45;52.57;94600.75;5004836;28;20108;-83
2023/04/11 07:56:34;;;;;;;13.60;8.77;;;;;;;10.48;52.29;94588.84;5003994;28;20034;-81
2023/04/11 07:59:00;;;;;;;10.93;8.15;;;;;;;10.60;52.18;94586.06;4987105;28;20049;-82
2023/04/11 08:01:26;;;;;;;10.10;7.97;;;;;;;10.80;51.20;94582.25;5003416;28;20022;-82
2023/04/11 08:03:55;;;;;;;11.05;7.85;;;;;;;10.82;51.30;94571.56;4987372;28;20480;-82
2023/04/11 08:06:20;;;;;;;10.40;8.38;;;;;;;10.80;51.57;94580.28;5002726;28;20056;-82
2023/04/11 08:08:46;;;;;;;11.38;8.35;;;;;;;10.86;51.72;94572.22;5004163;28;20026;-82
2023/04/11 08:11:14;;;;;;;10.18;8.13;;;;;;;10.97;51.02;94564.34;5003359;28;20488;-82
2023/04/11 08:13:40;;;;;;;10.80;7.68;;;;;;;11.20;50.32;94578.88;5016388;28;20036;-82
2023/04/11 08:16:08;;;;;;;13.57;9.65;;;;;;;11.40;49.88;94571.03;5005001;28;20021;-84
2023/04/11 08:18:34;;;;;;;10.23;7.35;;;;;;;11.15;49.11;94569.97;5004146;28;20025;-82
2023/04/11 08:21:00;;;;;;;11.50;8.07;;;;;;;11.34;48.64;94564.56;5003988;28;20033;-82
2023/04/11 08:23:26;;;;;;;11.07;7.75;;;;;;;11.43;48.44;94567.38;4986436;28;20444;-83
2023/04/11 08:25:51;;;;;;;9.32;7.50;;;;;;;11.14;48.57;94562.19;5005639;28;20034;-82
2023/04/11 08:28:17;;;;;;;9.70;7.65;;;;;;;11.07;48.32;94560.47;5004561;28;20137;-81
2023/04/11 08:30:42;;;;;;;9.75;7.57;;;;;;;11.32;48.07;94561.50;5005281;28;20034;-83
2023/04/11 08:33:08;;;;;;;8.90;7.07;;;;;;;11.21;48.23;94558.38;5004485;28;20511;-82
2023/04/11 08:35:34;;;;;;;10.25;7.70;;;;;;;11.25;48.84;94553.53;5004953;28;20045;-82
2023/04/11 08:37:59;;;;;;;9.90;6.45;;;;;;;11.37;48.38;94556.19;5004729;28;20076;-82
2023/04/11 08:40:26;;;;;;;10.88;7.10;;;;;;;11.41;47.71;94543.06;5003166;28;20033;-82
2023/04/11 08:42:57;;;;;;;9.10;7.03;;;;;;;11.36;47.88;94551.91;5005095;28;20041;-82
2023/04/11 08:45:23;;;;;;;7.55;6.28;;;;;;;11.41;47.31;94547.78;5002627;28;20037;-81
2023/04/11 08:47:48;;;;;;;9.70;6.88;;;;;;;11.49;47.40;94540.81;5005095;28;20018;-83
2023/04/11 08:50:14;;;;;;;8.13;6.53;;;;;;;11.63;47.04;94536.72;5004217;28;20030;-82
2023/04/11 08:52:40;;;;;;;10.20;7.95;;;;;;;11.67;46.81;94534.59;5004886;28;20529;-81
2023/04/11 08:55:05;;;;;;;10.07;7.45;;;;;;;11.88;46.89;94539.28;5003235;28;20042;-82
2023/04/11 08:57:31;;;;;;;11.40;8.18;;;;;;;12.25;45.47;94520.06;5004514;28;20054;-82
2023/04/11 09:00:13;;;;;;;10.10;7.65;;;;;;;12.54;44.53;94525.13;5004731;28;20034;-82
2023/04/11 09:02:56;;;;;;;9.25;7.13;;;;;;;12.88;43.45;94523.28;5002327;28;20030;-83
2023/04/11 09:05:31;;;;;;;13.63;8.40;;;;;;;12.70;44.54;94518.56;5004828;28;20109;-83
2023/04/11 09:07:59;;;;;;;10.68;7.75;;;;;;;12.64;45.17;94517.63;5006041;28;20037;-83
2023/04/11 09:10:25;;;;;;;11.15;8.38;;;;;;;12.67;45.18;94522.22;5012004;28;20033;-83
2023/04/11 09:12:53;;;;;;;9.40;7.43;;;;;;;12.96;43.27;94513.47;4987755;28;20057;-84
2023/04/11 09:15:22;;;;;;;8.95;7.05;;;;;;;12.96;43.34;94510.69;5005403;28;20511;-83
2023/04/11 09:17:48;;;;;;;9.52;7.53;;;;;;;13.20;42.79;94502.53;5007248;28;20377;-81
2023/04/11 09:20:30;;;;;;;9.55;7.55;;;;;;;13.33;42.90;94499.63;5008033;28;20021;-83
2023/04/11 09:22:59;;;;;;;10.30;7.88;;;;;;;13.29;43.10;94505.28;5007591;28;20112;-84
2023/04/11 09:25:25;;;;;;;10.27;7.57;;;;;;;13.34;42.70;94495.63;5006966;28;20029;-82
2023/04/11 09:28:06;;;;;;;9.40;8.25;;;;;;;13.45;41.88;94502.16;5006975;28;20469;-83
2023/04/11 09:30:32;;;;;;;10.30;7.63;;;;;;;13.46;42.21;94500.16;5008976;28;20507;-83
2023/04/11 09:32:57;;;;;;;10.98;8.13;;;;;;;13.45;42.52;94496.66;5007503;28;20034;-83
2023/04/11 09:35:27;;;;;;;11.63;8.18;;;;;;;13.36;42.71;94488.41;5007389;28;20057;-84
2023/04/11 09:37:59;;;;;;;12.20;8.35;;;;;;;13.23;42.90;94474.78;5006249;28;20056;-82
2023/04/11 09:40:26;;;;;;;11.32;8.48;;;;;;;13.25;43.06;94477.09;5007519;28;20119;-84
2023/04/11 09:42:59;;;;;;;13.82;8.95;;;;;;;13.15;42.89;94472.81;5006252;28;20113;-82
2023/04/11 09:45:26;;;;;;;11.38;8.73;;;;;;;13.54;42.60;94471.00;5006411;28;20033;-82
2023/04/11 09:47:56;;;;;;;11.85;9.15;;;;;;;13.49;42.41;94471.66;5006774;28;20026;-83
2023/04/11 09:50:23;;;;;;;11.85;8.85;;;;;;;13.40;42.57;94452.34;5006002;28;20033;-83
2023/04/11 09:52:48;;;;;;;11.43;8.75;;;;;;;13.59;41.57;94451.03;5006837;28;20040;-82
2023/04/11 09:55:17;;;;;;;12.70;8.45;;;;;;;13.62;41.26;94441.81;5006772;28;20030;-86
2023/04/11 09:57:48;;;;;;;10.85;7.57;;;;;;;13.99;40.68;94439.59;5007705;28;20046;-84
2023/04/11 10:00:17;;;;;;;10.38;8.05;;;;;;;14.09;40.39;94432.75;5006135;28;20523;-83
2023/04/11 10:02:44;;;;;;;11.80;8.05;;;;;;;14.32;40.08;94447.78;5006840;28;20045;-83
2023/04/11 10:05:11;;;;;;;10.10;7.65;;;;;;;14.34;39.16;94439.03;5017852;28;20091;-82
2023/04/11 10:07:46;;;;;;;10.30;7.97;;;;;;;14.11;39.48;94439.81;5005734;28;20038;-82
2023/04/11 10:10:19;;;;;;;11.38;7.82;;;;;;;14.26;39.34;94426.78;5007975;28;20026;-82
2023/04/11 10:12:45;;;;;;;10.00;8.00;;;;;;;14.47;39.80;94433.28;5005678;28;20026;-83
2023/04/11 10:15:11;;;;;;;9.73;7.90;;;;;;;14.62;39.13;94428.50;5009052;28;20038;-83
2023/04/11 10:17:36;;;;;;;10.85;8.10;;;;;;;14.76;38.94;94424.25;5008574;28;20473;-83
2023/04/11 10:20:30;;;;;;;10.07;7.70;;;;;;;15.21;38.17;94416.69;5005499;28;20028;-83
2023/04/11 10:22:59;;;;;;;9.95;7.15;;;;;;;15.30;37.33;94430.41;5007331;28;20037;-83
2023/04/11 10:25:25;;;;;;;10.45;7.65;;;;;;;15.11;37.24;94416.78;5005328;28;20096;-82
2023/04/11 10:28:03;;;;;;;9.80;7.80;;;;;;;15.40;36.39;94423.50;5006056;28;20032;-84
2023/04/11 10:30:37;;;;;;;9.63;7.20;;;;;;;15.59;36.29;94404.66;5005667;28;20030;-82
2023/04/11 10:33:10;;;;;;;10.27;8.00;;;;;;;15.66;36.31;94407.06;5006700;28;20624;-83
2023/04/11 10:35:56;;;;;;;11.05;8.43;;;;;;;15.55;36.34;94404.88;5006366;28;20022;-82
2023/04/11 10:38:44;;;;;;;10.20;7.55;;;;;;;15.41;36.21;94402.88;5006447;28;20033;-82
2023/04/11 10:41:23;;;;;;;9.75;7.93;;;;;;;15.50;36.03;94405.53;5006848;28;20674;-83
2023/04/11 10:43:49;;;;;;;9.32;7.47;;;;;;;15.57;35.39;94393.28;5006816;28;20040;-83
2023/04/11 10:46:23;;;;;;;11.18;7.40;;;;;;;16.17;34.62;94386.28;5004572;28;20393;-83
2023/04/11 10:48:58;;;;;;;9.05;7.50;;;;;;;15.91;35.24;94378.66;4989010;28;20124;-83
2023/04/11 10:51:25;;;;;;;7.28;6.50;;;;;;;15.92;34.83;94384.97;5006042;28;20026;-83
2023/04/11 10:53:51;;;;;;;8.55;6.90;;;;;;;16.15;33.79;94380.44;5005769;28;20040;-83
2023/04/11 10:56:44;;;;;;;9.95;6.82;;;;;;;16.74;32.63;94368.97;5004907;28;20034;-83
2023/04/11 10:59:35;;;;;;;7.82;6.97;;;;;;;17.53;32.69;94371.09;5011534;28;20049;-83
2023/04/11 11:02:01;;;;;;;8.77;7.20;;;;;;;17.12;33.05;94359.47;5011572;28;20038;-83
2023/04/11 11:04:33;;;;;;;9.23;7.65;;;;;;;16.75;33.13;94370.53;5004489;28;20173;-82
2023/04/11 11:07:00;;;;;;;8.52;7.50;;;;;;;16.36;33.16;94368.09;5005236;28;20064;-83
2023/04/11 11:09:27;;;;;;;8.43;7.50;;;;;;;16.32;33.58;94364.00;5006289;28;20551;-84
2023/04/11 11:12:12;;;;;;;9.35;6.78;;;;;;;15.89;34.46;94363.78;5004582;28;20543;-83
2023/04/11 11:14:42;;;;;;;9.93;7.32;;;;;;;15.75;34.85;94351.50;5006695;28;20091;-83
2023/04/11 11:17:10;;;;;;;8.95;7.55;;;;;;;15.57;35.54;94348.97;5005581;28;20558;-84
2023/04/11 11:19:35;;;;;;;9.50;7.60;;;;;;;15.66;34.93;94346.88;5005304;28;20112;-82
2023/04/11 11:22:05;;;;;;;11.32;7.40;;;;;;;15.39;34.85;94342.44;5004224;28;20114;-82
2023/04/11 11:24:31;;;;;;;8.65;7.30;;;;;;;15.24;35.42;94349.25;5005380;28;20038;-83
2023/04/11 11:26:57;;;;;;;11.65;8.48;;;;;;;15.98;34.54;94343.47;5004624;28;20092;-82